createdAt,value
2022-12-17T00:00:00.122Z,-2
2022-12-17T00:05:00.095Z,-2
2022-12-17T00:10:00.082Z,-2
2022-12-17T00:15:00.102Z,-2
2022-12-17T00:20:00.114Z,-2
2022-12-17T00:25:00.088Z,-2
2022-12-17T00:30:00.109Z,-2
2022-12-17T00:35:00.105Z,-2
2022-12-17T00:40:00.126Z,-2
2022-12-17T00:45:00.101Z,-2
2022-12-17T00:50:00.103Z,-2
2022-12-17T00:55:00.096Z,-2
2022-12-17T01:00:00.153Z,-2
2022-12-17T01:05:00.123Z,-2
2022-12-17T01:10:00.103Z,-2
2022-12-17T01:15:00.089Z,-2
2022-12-17T01:20:00.129Z,-2
2022-12-17T01:25:00.092Z,-2
2022-12-17T01:30:00.113Z,-2
2022-12-17T01:35:00.088Z,-2
2022-12-17T01:40:00.114Z,-2
2022-12-17T01:45:00.088Z,-2
2022-12-17T01:50:00.098Z,-2
2022-12-17T01:55:00.105Z,-2
2022-12-17T02:00:00.167Z,-2
2022-12-17T02:05:00.089Z,-2
2022-12-17T02:10:00.089Z,-2
2022-12-17T02:15:00.099Z,-2
2022-12-17T02:20:00.131Z,-2
2022-12-17T02:25:00.143Z,-2
2022-12-17T02:30:00.107Z,-2
2022-12-17T02:35:00.089Z,-2
2022-12-17T02:40:00.099Z,-2
2022-12-17T02:45:00.120Z,-2
2022-12-17T02:50:00.084Z,-2
2022-12-17T02:55:00.105Z,-2
2022-12-17T03:00:00.144Z,-2
2022-12-17T03:05:06.524Z,-2
2022-12-17T03:10:00.089Z,-2
2022-12-17T03:15:00.097Z,-2
2022-12-17T03:20:00.125Z,-2
2022-12-17T03:25:00.089Z,-2
2022-12-17T03:30:00.117Z,-2.5
2022-12-17T03:35:00.091Z,-2.5
2022-12-17T03:40:00.118Z,-2.5
2022-12-17T03:45:00.099Z,-2.5
2022-12-17T03:50:00.106Z,-2
2022-12-17T03:55:00.103Z,-2
2022-12-17T04:00:00.131Z,-2
2022-12-17T04:05:00.108Z,-2.5
2022-12-17T04:10:00.114Z,-2.5
2022-12-17T04:15:00.093Z,-2.5
2022-12-17T04:20:00.120Z,-2.5
2022-12-17T04:25:00.098Z,-3
2022-12-17T04:30:00.114Z,-3
2022-12-17T04:35:00.112Z,-3
2022-12-17T04:40:00.126Z,-3
2022-12-17T04:45:00.082Z,-3
2022-12-17T04:50:00.115Z,-2.5
2022-12-17T04:55:00.088Z,-2.5
2022-12-17T05:00:00.125Z,-2.5
2022-12-17T05:05:00.085Z,-2
2022-12-17T05:10:00.105Z,-2
2022-12-17T05:15:00.082Z,-2.5
2022-12-17T05:20:00.134Z,-2.5
2022-12-17T05:25:00.084Z,-2.5
2022-12-17T05:30:00.085Z,-2.5
2022-12-17T05:35:00.092Z,-2.5
2022-12-17T05:40:00.142Z,-2.5
2022-12-17T05:45:00.086Z,-2.5
2022-12-17T05:50:00.111Z,-2
2022-12-17T05:55:00.112Z,-2
2022-12-17T06:00:00.125Z,-2
2022-12-17T06:05:02.226Z,-2
2022-12-17T06:10:00.096Z,-2
2022-12-17T06:15:00.081Z,-2
2022-12-17T06:20:00.168Z,-1.5
2022-12-17T06:25:00.085Z,-1.5
2022-12-17T06:30:00.127Z,-1.5
2022-12-17T06:35:00.084Z,-1.5
2022-12-17T06:40:00.096Z,-1.5
2022-12-17T06:45:00.106Z,-1.5
2022-12-17T06:50:01.511Z,-1.5
2022-12-17T06:55:00.083Z,-1.5
2022-12-17T07:00:00.144Z,-1.5
2022-12-17T07:05:00.101Z,-1.5
2022-12-17T07:10:00.110Z,-1.5
2022-12-17T07:15:00.119Z,-1.5
2022-12-17T07:20:00.138Z,-1.5
2022-12-17T07:25:00.109Z,-1.5
2022-12-17T07:30:00.152Z,-1.5
2022-12-17T07:35:00.104Z,-1.5
2022-12-17T07:40:00.128Z,-1.5
2022-12-17T07:45:00.075Z,-1.5
2022-12-17T07:50:00.103Z,-1.5
2022-12-17T07:55:00.097Z,-1.5
2022-12-17T08:00:00.154Z,-1.5
2022-12-17T08:05:00.093Z,-1
2022-12-17T08:10:00.101Z,-0.5
2022-12-17T08:15:00.102Z,-0.5
2022-12-17T08:20:00.113Z,0
2022-12-17T08:25:00.088Z,0
2022-12-17T08:30:00.108Z,0
2022-12-17T08:35:00.108Z,0
2022-12-17T08:40:00.238Z,-0.5
2022-12-17T08:45:00.094Z,-0.5
2022-12-17T08:50:00.116Z,-0.5
2022-12-17T08:55:00.084Z,-0.5
2022-12-17T09:00:00.138Z,-0.5
2022-12-17T09:05:00.092Z,-0.5
2022-12-17T09:10:00.107Z,-0.5
2022-12-17T09:15:00.091Z,-0.5
2022-12-17T09:20:00.141Z,0
2022-12-17T09:25:00.109Z,0
2022-12-17T09:30:00.107Z,0
2022-12-17T09:35:00.088Z,0
2022-12-17T09:40:00.133Z,0
2022-12-17T09:45:00.092Z,0
2022-12-17T09:50:00.104Z,0
2022-12-17T09:55:01.545Z,0
2022-12-17T10:00:00.190Z,0
2022-12-17T10:05:00.109Z,0
2022-12-17T10:10:00.124Z,0
2022-12-17T10:15:00.168Z,0
2022-12-17T10:20:00.123Z,0
2022-12-17T10:25:00.110Z,0
2022-12-17T10:30:00.122Z,0
2022-12-17T10:35:05.095Z,0
2022-12-17T10:40:00.113Z,0
2022-12-17T10:45:00.099Z,0
2022-12-17T10:50:00.083Z,0
2022-12-17T10:55:00.097Z,0
2022-12-17T11:00:00.154Z,0.5
2022-12-17T11:05:00.102Z,0.5
2022-12-17T11:10:02.437Z,0.5
2022-12-17T11:15:00.092Z,0.5
2022-12-17T11:20:00.275Z,0.5
2022-12-17T11:25:00.123Z,0.5
2022-12-17T11:30:00.125Z,0.5
2022-12-17T11:35:00.116Z,0.5
2022-12-17T11:40:00.123Z,0.5
2022-12-17T11:45:00.118Z,0.5
2022-12-17T11:50:00.100Z,0.5
2022-12-17T11:55:00.091Z,0.5
2022-12-17T12:00:03.931Z,0.5
2022-12-17T12:05:00.094Z,0.5
2022-12-17T12:10:00.120Z,0.5
2022-12-17T12:15:00.107Z,0.5
2022-12-17T12:20:00.123Z,0.5
2022-12-17T12:25:00.119Z,0
2022-12-17T12:30:00.106Z,0
2022-12-17T12:35:00.144Z,0
2022-12-17T12:40:00.129Z,0
2022-12-17T12:45:00.108Z,0
2022-12-17T12:50:00.120Z,0
2022-12-17T12:55:00.113Z,0
2022-12-17T13:00:00.166Z,0
2022-12-17T13:05:00.144Z,0
2022-12-17T13:10:00.208Z,0
2022-12-17T13:15:00.091Z,0
2022-12-17T13:20:00.127Z,0
2022-12-17T13:25:00.112Z,-0.5
2022-12-17T13:30:00.106Z,-0.5
2022-12-17T13:35:00.099Z,-0.5
2022-12-17T13:40:00.154Z,-0.5
2022-12-17T13:45:00.099Z,-0.5
2022-12-17T13:55:00.121Z,-0.5
2022-12-17T14:00:00.153Z,-1
2022-12-17T14:05:04.138Z,-1
2022-12-17T14:10:00.118Z,-1
2022-12-17T14:15:00.100Z,-1
2022-12-17T14:20:00.155Z,-1
2022-12-17T14:25:00.109Z,-1
2022-12-17T14:30:00.126Z,-1
2022-12-17T14:35:00.883Z,-1
2022-12-17T14:40:00.235Z,-1
2022-12-17T14:45:00.122Z,-1.5
2022-12-17T14:50:00.139Z,-1.5
2022-12-17T14:55:00.098Z,-1.5
2022-12-17T15:00:00.151Z,-1.5
2022-12-17T15:05:00.094Z,-1.5
2022-12-17T15:10:00.105Z,-1.5
2022-12-17T15:15:00.106Z,-1.5
2022-12-17T15:20:00.124Z,-1.5
2022-12-17T15:25:00.139Z,-1.5
2022-12-17T15:30:00.205Z,-1.5
2022-12-17T15:35:00.103Z,-1.5
2022-12-17T15:40:00.153Z,-1.5
2022-12-17T15:45:00.100Z,-1.5
2022-12-17T15:50:00.104Z,-1.5
2022-12-17T15:55:00.097Z,-1.5
2022-12-17T16:00:00.169Z,-1.5
2022-12-17T16:05:00.114Z,-1.5
2022-12-17T16:10:04.724Z,-1.5
2022-12-17T16:15:00.199Z,-1.5
2022-12-17T16:20:00.144Z,-1.5
2022-12-17T16:25:00.098Z,-1.5
2022-12-17T16:30:00.136Z,-2
2022-12-17T16:35:00.095Z,-2
2022-12-17T16:40:00.623Z,-2
2022-12-17T16:45:00.116Z,-2
2022-12-17T16:50:00.097Z,-2
2022-12-17T16:55:00.098Z,-2
2022-12-17T17:00:00.144Z,-2
2022-12-17T17:05:00.108Z,-2.5
2022-12-17T17:10:00.093Z,-2.5
2022-12-17T17:15:00.140Z,-2.5
2022-12-17T17:20:00.113Z,-2.5
2022-12-17T17:25:00.092Z,-2.5
2022-12-17T17:30:03.431Z,-2
2022-12-17T17:35:00.106Z,-2
2022-12-17T17:40:00.129Z,-2
2022-12-17T17:45:00.104Z,-2
2022-12-17T17:50:00.117Z,-2
2022-12-17T17:55:00.105Z,-2.5
2022-12-17T18:00:00.174Z,-2.5
2022-12-17T18:05:00.301Z,-2.5
2022-12-17T18:10:00.088Z,-2.5
2022-12-17T18:15:17.181Z,-2.5
2022-12-17T18:20:00.183Z,-2.5
2022-12-17T18:25:00.114Z,-2.5
2022-12-17T18:30:00.119Z,-2.5
2022-12-17T18:35:00.257Z,-3
2022-12-17T18:40:00.138Z,-3
2022-12-17T18:45:00.128Z,-3
2022-12-17T18:50:00.113Z,-3
2022-12-17T18:55:00.095Z,-3
2022-12-17T19:00:00.143Z,-3
2022-12-17T19:05:00.130Z,-3
2022-12-17T19:10:00.098Z,-3.5
2022-12-17T19:15:00.123Z,-3.5
2022-12-17T19:20:00.106Z,-3.5
2022-12-17T19:25:00.116Z,-3.5
2022-12-17T19:30:00.117Z,-3.5
2022-12-17T19:35:00.105Z,-3.5
2022-12-17T19:40:00.122Z,-3.5
2022-12-17T19:45:00.122Z,-4
2022-12-17T19:50:00.095Z,-4
2022-12-17T19:55:00.118Z,-4
2022-12-17T20:00:00.214Z,-4
2022-12-17T20:05:00.113Z,-4.5
2022-12-17T20:10:00.109Z,-4.5
2022-12-17T20:15:00.090Z,-4.5
2022-12-17T20:20:00.124Z,-4.5
2022-12-17T20:25:00.106Z,-5
2022-12-17T20:30:00.130Z,-5
2022-12-17T20:35:00.107Z,-5
2022-12-17T20:40:00.156Z,-5
2022-12-17T20:45:00.114Z,-5
2022-12-17T20:50:00.110Z,-5.5
2022-12-17T20:55:00.152Z,-5.5
2022-12-17T21:00:00.161Z,-5.5
2022-12-17T21:05:00.115Z,-5.5
2022-12-17T21:10:00.105Z,-6
2022-12-17T21:15:00.095Z,-6
2022-12-17T21:20:04.550Z,-6
2022-12-17T21:25:00.114Z,-6
2022-12-17T21:30:00.112Z,-6
2022-12-17T21:35:00.142Z,-6
2022-12-17T21:40:00.320Z,-6
2022-12-17T21:45:00.124Z,-6.5
2022-12-17T21:50:00.096Z,-6.5
2022-12-17T21:55:00.097Z,-6.5
2022-12-17T22:00:00.151Z,-6.5
2022-12-17T22:05:00.217Z,-7
2022-12-17T22:10:04.249Z,-7
2022-12-17T22:15:00.088Z,-7
2022-12-17T22:20:00.127Z,-7
2022-12-17T22:25:04.589Z,-7
2022-12-17T22:30:00.103Z,-7
2022-12-17T22:35:35.552Z,-7
2022-12-17T22:41:58.510Z,-7
2022-12-17T22:45:06.305Z,-7
2022-12-17T22:50:00.108Z,-7.5
2022-12-17T22:55:00.142Z,-7.5
2022-12-17T23:00:00.168Z,-7.5
2022-12-17T23:05:00.119Z,-7.5
2022-12-17T23:10:00.159Z,-7.5
2022-12-17T23:15:00.103Z,-7.5
2022-12-17T23:20:00.118Z,-7.5
2022-12-17T23:25:00.117Z,-7.5
2022-12-17T23:30:00.355Z,-7.5
2022-12-17T23:35:00.101Z,-7.5
2022-12-17T23:40:00.147Z,-7.5
2022-12-17T23:45:00.096Z,-7.5
2022-12-17T23:50:00.121Z,-7.5
2022-12-17T23:55:00.096Z,-7.5
